Pagina principale
METAR-TAF:

METAR-TAF

Aeroporti :

Aeroporto Internazionale di Khartum

Khartum, Sudan

latitudine: 15-36N, longitudine: 032-33E, altezza: 382 m

Osservazione

Il bollettino è stato emesso 22 minuti fa, alle 18:30 UTC
Vento 13 kt da est/sud-est
Temperature 35°C
Umidità 22%
Pressione 1009 hPa
Visibilità: 8000 m

METAR: HSSS 251830Z 12013KT 8000 NSC 35/10 Q1009 NOSIG

Ora: 21:52 (18:52 UTC)

Previsione

Il bollettino è stato emesso 1 ora e 52 minuti fa, alle 17:00 UTC
Previsione valida dal 25 alle 18 UTC al 26 alle 24 UTC
Vento 3 kt da direzioni variabili
Visibilità 10 km o più
Poco nuvoloso ad un'altezza di 4000 ft
Nuvoloso ad un'altezza di 14000 ft
Probabilità 30% :
Temporaneamente
dal 25 alle 18 UTC al 26 alle 03 UTC
Visibilità: 6000 m
Poco nuvoloso ad un'altezza di 4500 ft, Cumulonembo.
temporale, pioggia

TAF: HSSS 251700Z 2518/2624 VRB03KT 9999 FEW040 BKN140 PROB30 TEMPO 2518/2603 6000 TSRA FEW045CB

Osservazioni e previsioni meteorologiche di più di 4000 aeroporti (messaggi METAR e TAF).

Le stazioni disponibili sono rappresentate dai dischi gialli e rossi sulla carta.

Puntare il mouse per vedere il nome della stazione.

Clicca sopra per visualizzare le osservazioni e previsioni meteorologiche.

Per cambiare la mappa : fare clic sui pulsanti verdi con una croce nera per ingrandire, il pulsante verde con un trattino per diminuire, o sulla freccia verde per le mappe adiacenti.


METAR-TAF: